This is the latest recevied weather packets stored in our database for station/object E70ARA-3. If no packets are shown the sender has not sent any weather packets the latest 1 day(s).
| Time | Temp. | Humidity | Pressure | Rain* | Wind** | Luminosity | Snow |
|---|---|---|---|---|---|---|---|
| 1778085793 | 21.11° C | 40% | 1023.8 hPa | - | - | - | - |
| 1778082192 | 23.89° C | 34% | 1022.9 hPa | - | - | - | - |
| 1778081292 | 25° C | 33% | 1022.6 hPa | - | - | - | - |
| 1778077691 | 26.11° C | 30% | 1022.3 hPa | - | - | - | - |
| 1778076791 | 26.67° C | 29% | 1022.4 hPa | - | - | - | - |
| 1778075890 | 27.22° C | 29% | 1022.4 hPa | - | - | - | - |
| 1778074990 | 27.22° C | 29% | 1022.4 hPa | - | - | - | - |
| 1778069589 | 27.78° C | 26% | 1023 hPa | - | - | - | - |
| 1778065988 | 28.33° C | 28% | 1023.5 hPa | - | - | - | - |
| 1778065088 | 29.44° C | 27% | 1023.6 hPa | - | - | - | - |
| 1778061487 | 29.44° C | 27% | 1024.3 hPa | - | - | - | - |
| 1778060587 | 29.44° C | 28% | 1024.4 hPa | - | - | - | - |
| 1778057886 | 26.67° C | 35% | 1025 hPa | - | - | - | - |
| 1778056985 | 28.33° C | 32% | 1025 hPa | - | - | - | - |
| 1778056085 | 26.11° C | 35% | 1025.2 hPa | - | - | - | - |
| 1778055185 | 23.89° C | 38% | 1025.4 hPa | - | - | - | - |
| 1778054284 | 27.22° C | 33% | 1025.4 hPa | - | - | - | - |
| 1778051588 | 23.89° C | 38% | 1026 hPa | - | - | - | - |
| 1778050688 | 22.22° C | 41% | 1026.4 hPa | - | - | - | - |
| 1778049788 | 22.78° C | 40% | 1026.5 hPa | - | - | - | - |
| 1778047087 | 17.78° C | 48% | 1027.1 hPa | - | - | - | - |
| 1778046187 | 17.22° C | 50% | 1027 hPa | - | - | - | - |
| 1778043486 | 10° C | 77% | 1027.6 hPa | - | - | - | - |
| 1778042586 | 10° C | 77% | 1027.6 hPa | - | - | - | - |
| 1778041686 | 9.44° C | 80% | 1027.8 hPa | - | - | - | - |
* Rain since midnight (hover to see other rain measurements)
** Current wind speed in m/s (hover to see current wind gust speed)